createdAt,value
2023-03-21T00:01:03.932Z,17.00
2023-03-21T00:03:34.206Z,15.30
2023-03-21T00:06:11.362Z,13.70
2023-03-21T00:08:40.157Z,12.10
2023-03-21T00:11:09.947Z,11.40
2023-03-21T00:13:38.770Z,12.40
2023-03-21T00:16:15.899Z,14.40
2023-03-21T00:24:17.024Z,12.80
2023-03-21T00:26:46.280Z,11.70
2023-03-21T00:29:14.595Z,14.00
2023-03-21T00:31:42.836Z,13.90
2023-03-21T00:36:44.243Z,11.10
2023-03-21T00:39:12.508Z,12.70
2023-03-21T00:41:43.365Z,12.50
2023-03-21T00:44:16.009Z,10.00
2023-03-21T00:46:57.107Z,11.00
2023-03-21T00:49:38.608Z,11.00
2023-03-21T00:52:18.686Z,10.30
2023-03-21T00:54:53.145Z,12.80
2023-03-21T00:57:29.347Z,8.70
2023-03-21T01:00:08.001Z,9.30
2023-03-21T01:02:38.154Z,8.70
2023-03-21T01:05:06.949Z,11.20
2023-03-21T01:07:35.207Z,9.40
2023-03-21T01:10:03.386Z,7.20
2023-03-21T01:12:31.772Z,11.20
2023-03-21T01:15:00.047Z,8.80
2023-03-21T01:17:28.522Z,12.60
2023-03-21T01:19:56.900Z,7.40
2023-03-21T01:22:24.955Z,11.80
2023-03-21T01:24:58.574Z,10.60
2023-03-21T01:27:29.097Z,10.20
2023-03-21T01:29:57.811Z,9.40
2023-03-21T01:32:26.890Z,11.10
2023-03-21T01:34:55.461Z,9.70
2023-03-21T01:37:26.734Z,10.60
2023-03-21T01:39:55.388Z,8.40
2023-03-21T01:42:23.773Z,9.70
2023-03-21T01:45:01.659Z,7.80
2023-03-21T01:47:46.327Z,9.30
2023-03-21T01:50:37.126Z,10.10
2023-03-21T01:53:24.145Z,9.10
2023-03-21T01:55:52.427Z,11.30
2023-03-21T01:58:42.422Z,13.10
2023-03-21T02:01:34.939Z,10.70
2023-03-21T02:04:04.067Z,12.00
2023-03-21T02:06:49.566Z,11.20
2023-03-21T02:09:33.735Z,9.60
2023-03-21T02:12:03.279Z,9.60
2023-03-21T02:14:34.726Z,11.70
2023-03-21T02:17:19.897Z,11.00
2023-03-21T02:20:33.529Z,8.50
2023-03-21T02:23:41.251Z,15.90
2023-03-21T02:26:42.148Z,12.00
2023-03-21T02:29:22.025Z,11.70
2023-03-21T02:32:12.381Z,11.90
2023-03-21T02:34:54.131Z,9.60
2023-03-21T02:37:36.706Z,9.50
2023-03-21T02:40:15.771Z,11.10
2023-03-21T02:42:59.300Z,11.20
2023-03-21T02:45:49.896Z,10.60
2023-03-21T02:48:49.761Z,10.90
2023-03-21T02:51:23.221Z,9.30
2023-03-21T02:54:23.650Z,10.20
2023-03-21T02:56:49.162Z,11.50
2023-03-21T02:59:19.569Z,10.30
2023-03-21T03:01:47.986Z,12.90
2023-03-21T03:04:28.108Z,7.70
2023-03-21T03:07:15.843Z,8.10
2023-03-21T03:09:52.721Z,10.90
2023-03-21T03:12:39.116Z,11.00
2023-03-21T03:15:18.044Z,8.80
2023-03-21T03:18:09.545Z,9.10
2023-03-21T03:20:56.574Z,7.50
2023-03-21T03:23:27.926Z,6.70
2023-03-21T03:26:42.607Z,7.80
2023-03-21T03:29:16.786Z,8.20
2023-03-21T03:32:25.816Z,10.90
2023-03-21T03:34:58.666Z,7.00
2023-03-21T03:37:34.418Z,7.20
2023-03-21T03:40:09.181Z,9.20
2023-03-21T03:42:46.594Z,11.00
2023-03-21T03:45:27.148Z,7.40
2023-03-21T03:48:06.256Z,7.70
2023-03-21T03:50:47.837Z,9.10
2023-03-21T03:53:29.833Z,7.20
2023-03-21T03:56:00.811Z,8.30
2023-03-21T03:58:44.607Z,10.50
2023-03-21T04:01:14.644Z,12.10
2023-03-21T04:03:51.063Z,13.20
2023-03-21T04:06:22.871Z,11.50
2023-03-21T04:08:52.178Z,11.50
2023-03-21T04:11:20.674Z,10.10
2023-03-21T04:13:52.228Z,10.20
2023-03-21T04:16:24.705Z,8.60
2023-03-21T04:18:53.345Z,11.80
2023-03-21T04:21:22.082Z,14.60
2023-03-21T04:23:50.549Z,14.40
2023-03-21T04:26:22.527Z,13.20
2023-03-21T04:29:05.476Z,13.30
2023-03-21T04:32:03.627Z,14.60
2023-03-21T04:34:32.194Z,14.20
2023-03-21T04:37:01.658Z,11.10
2023-03-21T04:39:29.704Z,12.20
2023-03-21T04:41:57.900Z,12.80
2023-03-21T04:44:26.635Z,11.00
2023-03-21T04:46:54.762Z,11.70
2023-03-21T04:49:23.246Z,9.10
2023-03-21T04:51:51.530Z,12.10
2023-03-21T04:54:21.171Z,10.20
2023-03-21T04:56:49.292Z,10.30
2023-03-21T04:59:17.349Z,10.50
2023-03-21T05:01:46.125Z,7.80
2023-03-21T05:04:15.043Z,9.10
2023-03-21T05:06:44.445Z,10.50
2023-03-21T05:09:13.860Z,12.00
2023-03-21T05:11:42.751Z,13.50
2023-03-21T05:14:16.787Z,13.80
2023-03-21T05:19:19.179Z,13.50
2023-03-21T05:21:47.506Z,12.80
2023-03-21T05:24:22.964Z,10.50
2023-03-21T05:26:52.739Z,11.80
2023-03-21T05:29:25.544Z,16.70
2023-03-21T05:32:01.204Z,12.80
2023-03-21T05:34:30.079Z,8.50
2023-03-21T05:36:58.716Z,6.90
2023-03-21T05:42:08.785Z,16.60
2023-03-21T05:44:37.740Z,12.10
2023-03-21T05:47:07.338Z,7.30
2023-03-21T05:49:42.409Z,11.00
2023-03-21T05:52:11.371Z,8.10
2023-03-21T05:54:39.635Z,9.40
2023-03-21T05:57:08.580Z,10.30
2023-03-21T05:59:58.813Z,12.70
2023-03-21T06:02:28.966Z,11.90
2023-03-21T06:04:58.137Z,10.90
2023-03-21T06:07:27.220Z,16.10
2023-03-21T06:09:56.581Z,13.10
2023-03-21T06:12:24.695Z,17.00
2023-03-21T06:14:58.823Z,20.00
2023-03-21T06:17:33.231Z,19.30
2023-03-21T06:20:08.377Z,13.70
2023-03-21T06:22:43.044Z,14.10
2023-03-21T06:25:12.590Z,15.10
2023-03-21T06:27:41.096Z,12.60
2023-03-21T06:30:10.333Z,20.30
2023-03-21T06:32:46.137Z,14.90
2023-03-21T06:35:17.581Z,19.60
2023-03-21T06:37:46.355Z,14.60
2023-03-21T06:40:14.946Z,13.20
2023-03-21T06:42:43.332Z,11.60
2023-03-21T06:45:12.116Z,14.20
2023-03-21T06:47:40.311Z,11.80
2023-03-21T06:50:13.541Z,13.70
2023-03-21T06:52:43.171Z,13.50
2023-03-21T06:55:11.877Z,11.70
2023-03-21T06:57:40.049Z,15.60
2023-03-21T07:00:09.624Z,11.30
2023-03-21T07:02:41.412Z,11.70
2023-03-21T07:05:17.420Z,11.80
2023-03-21T07:07:45.753Z,14.30
2023-03-21T07:10:14.329Z,16.80
2023-03-21T07:13:01.097Z,14.50
2023-03-21T07:16:08.754Z,11.80
2023-03-21T07:18:37.000Z,15.30
2023-03-21T07:21:05.276Z,11.50
2023-03-21T07:23:33.293Z,14.50
2023-03-21T07:26:02.109Z,13.90
2023-03-21T07:28:32.270Z,12.10
2023-03-21T07:31:04.321Z,16.40
2023-03-21T07:36:02.738Z,14.50
2023-03-21T07:38:31.298Z,11.70
2023-03-21T07:41:00.879Z,10.50
2023-03-21T07:43:31.951Z,14.00
2023-03-21T07:46:00.760Z,13.40
2023-03-21T07:48:29.618Z,9.00
2023-03-21T07:50:57.903Z,10.60
2023-03-21T07:53:26.371Z,12.60
2023-03-21T07:55:56.738Z,11.70
2023-03-21T07:58:25.684Z,9.10
2023-03-21T08:00:56.958Z,13.80
2023-03-21T08:03:26.539Z,12.90
2023-03-21T08:05:55.130Z,11.30
2023-03-21T08:08:23.607Z,11.30
2023-03-21T08:10:51.772Z,10.10
2023-03-21T08:13:19.861Z,10.60
2023-03-21T08:15:47.835Z,16.50
2023-03-21T08:18:16.100Z,12.00
2023-03-21T08:20:44.482Z,15.70
2023-03-21T08:23:14.173Z,14.50
2023-03-21T08:25:42.354Z,13.50
2023-03-21T08:28:10.424Z,12.40
2023-03-21T08:30:38.504Z,10.80
2023-03-21T08:33:06.771Z,10.60
2023-03-21T08:35:40.836Z,13.90
2023-03-21T08:38:10.182Z,10.40
2023-03-21T08:40:38.852Z,11.00
2023-03-21T08:43:07.547Z,12.30
2023-03-21T08:45:36.172Z,14.30
2023-03-21T08:48:05.081Z,16.20
2023-03-21T08:50:33.092Z,9.60
2023-03-21T08:53:01.076Z,10.50
2023-03-21T08:55:29.446Z,11.00
2023-03-21T08:57:58.546Z,11.60
2023-03-21T09:00:27.526Z,10.80
2023-03-21T09:02:58.922Z,10.70
2023-03-21T09:05:28.479Z,14.90
2023-03-21T09:07:56.957Z,13.20
2023-03-21T09:10:25.541Z,12.00
2023-03-21T09:12:55.082Z,12.30
2023-03-21T09:15:25.916Z,7.00
2023-03-21T09:17:54.497Z,11.60
2023-03-21T09:20:33.104Z,14.30
2023-03-21T09:23:02.135Z,13.40
2023-03-21T09:25:35.216Z,12.60
2023-03-21T09:28:06.417Z,10.00
2023-03-21T09:30:36.842Z,9.00
2023-03-21T09:33:13.316Z,13.80
2023-03-21T09:35:43.023Z,10.90
2023-03-21T09:38:11.393Z,13.40
2023-03-21T09:40:57.159Z,16.10
2023-03-21T09:43:40.598Z,12.30
2023-03-21T09:46:19.797Z,10.40
2023-03-21T09:48:57.088Z,12.20
2023-03-21T09:51:46.237Z,14.90
2023-03-21T09:54:18.906Z,15.40
2023-03-21T09:56:49.592Z,13.30
2023-03-21T09:59:28.315Z,11.50
2023-03-21T10:01:58.532Z,14.10
2023-03-21T10:04:27.771Z,12.50
2023-03-21T10:07:02.466Z,15.10
2023-03-21T10:09:32.698Z,14.70
2023-03-21T10:12:14.923Z,14.60
2023-03-21T10:14:47.606Z,15.50
2023-03-21T10:17:16.044Z,15.20
2023-03-21T10:19:46.680Z,15.90
2023-03-21T10:22:14.952Z,14.90
2023-03-21T10:24:43.436Z,11.50
2023-03-21T10:27:13.376Z,16.30
2023-03-21T10:29:44.645Z,14.40
2023-03-21T10:32:17.425Z,14.10
2023-03-21T10:34:51.484Z,14.00
2023-03-21T10:37:19.864Z,18.30
2023-03-21T10:39:51.615Z,15.20
2023-03-21T10:44:57.694Z,15.90
2023-03-21T10:47:34.718Z,13.70
2023-03-21T10:50:10.208Z,13.90
2023-03-21T10:52:46.804Z,13.20
2023-03-21T10:55:30.732Z,14.20
2023-03-21T10:58:08.630Z,15.70
2023-03-21T11:00:48.119Z,14.10
2023-03-21T11:03:23.443Z,12.40
2023-03-21T11:06:05.952Z,14.30
2023-03-21T11:09:14.029Z,14.70
2023-03-21T11:11:54.817Z,12.70
2023-03-21T11:14:52.366Z,13.00
2023-03-21T11:17:22.381Z,16.20
2023-03-21T11:19:53.542Z,12.40
2023-03-21T11:22:25.255Z,16.60
2023-03-21T11:27:29.670Z,13.00
2023-03-21T11:30:01.905Z,12.10
2023-03-21T11:32:36.328Z,14.90
2023-03-21T11:35:16.564Z,10.50
2023-03-21T11:37:51.422Z,12.40
2023-03-21T11:40:25.415Z,10.80
2023-03-21T11:42:58.007Z,12.10
2023-03-21T11:45:32.206Z,13.10
2023-03-21T11:48:03.529Z,17.30
2023-03-21T11:50:36.160Z,15.10
2023-03-21T11:53:04.214Z,12.40
2023-03-21T11:55:57.569Z,16.30
2023-03-21T11:58:34.857Z,13.00
2023-03-21T12:01:21.248Z,12.70
2023-03-21T12:04:13.417Z,13.00
2023-03-21T12:06:52.870Z,14.70
2023-03-21T12:09:40.455Z,12.10
2023-03-21T12:12:30.028Z,11.60
2023-03-21T12:15:20.032Z,11.20
2023-03-21T12:17:51.146Z,9.30
2023-03-21T12:20:30.473Z,11.20
2023-03-21T12:23:13.993Z,15.10
2023-03-21T12:25:56.601Z,13.20
2023-03-21T12:28:52.215Z,10.10
2023-03-21T12:31:26.301Z,11.80
2023-03-21T12:34:18.699Z,10.20
2023-03-21T12:36:58.417Z,10.90
2023-03-21T12:39:32.147Z,12.00
2023-03-21T12:42:22.309Z,10.00
2023-03-21T12:45:11.586Z,12.50
2023-03-21T12:47:49.016Z,6.30
2023-03-21T12:50:26.349Z,7.10
2023-03-21T12:53:02.212Z,7.50
2023-03-21T12:55:33.814Z,7.30
2023-03-21T12:58:11.655Z,9.20
2023-03-21T13:00:44.567Z,6.30
2023-03-21T13:03:27.660Z,5.20
2023-03-21T13:06:04.441Z,9.60
2023-03-21T13:08:38.047Z,5.40
2023-03-21T13:11:07.842Z,5.40
2023-03-21T13:13:53.122Z,6.70
2023-03-21T13:16:34.837Z,6.40
2023-03-21T13:19:14.023Z,6.10
2023-03-21T13:22:10.016Z,7.00
2023-03-21T13:24:47.453Z,5.40
2023-03-21T13:27:33.865Z,4.40
2023-03-21T13:30:22.238Z,2.60
2023-03-21T13:32:51.710Z,4.70
2023-03-21T13:35:29.121Z,3.20
2023-03-21T13:38:02.194Z,3.90
2023-03-21T13:40:43.022Z,4.30
2023-03-21T13:43:42.470Z,3.50
2023-03-21T13:46:11.231Z,2.60
2023-03-21T13:48:59.551Z,2.70
2023-03-21T13:51:28.158Z,4.00
2023-03-21T13:54:06.738Z,4.20
2023-03-21T13:56:47.113Z,4.10
2023-03-21T13:59:39.111Z,4.20
2023-03-21T14:02:19.184Z,2.60
2023-03-21T14:05:04.822Z,3.70
2023-03-21T14:07:41.108Z,5.10
2023-03-21T14:10:20.380Z,5.50
2023-03-21T14:12:49.371Z,7.30
2023-03-21T14:15:24.482Z,4.50
2023-03-21T14:18:15.875Z,4.50
2023-03-21T14:20:54.640Z,4.60
2023-03-21T14:23:23.732Z,4.00
2023-03-21T14:25:53.000Z,4.20
2023-03-21T14:28:28.679Z,4.70
2023-03-21T14:31:00.271Z,4.40
2023-03-21T14:33:44.317Z,4.70
2023-03-21T14:36:20.846Z,5.00
2023-03-21T14:38:58.659Z,4.10
2023-03-21T14:41:29.629Z,4.10
2023-03-21T14:44:12.547Z,5.20
2023-03-21T14:46:41.971Z,4.90
2023-03-21T14:49:24.669Z,3.90
2023-03-21T14:52:00.118Z,4.20
2023-03-21T14:54:29.247Z,3.60
2023-03-21T14:57:05.185Z,3.00
2023-03-21T14:59:37.702Z,2.70
2023-03-21T15:02:36.826Z,2.40
2023-03-21T15:05:19.610Z,2.90
2023-03-21T15:08:02.411Z,3.00
2023-03-21T15:10:32.022Z,2.50
2023-03-21T15:13:12.539Z,2.70
2023-03-21T15:15:41.618Z,2.70
2023-03-21T15:18:16.341Z,2.40
2023-03-21T15:20:46.706Z,3.30
2023-03-21T15:23:38.516Z,4.00
2023-03-21T15:26:07.146Z,2.40
2023-03-21T15:28:36.496Z,4.00
2023-03-21T15:31:13.948Z,2.90
2023-03-21T15:33:46.574Z,3.90
2023-03-21T15:36:28.018Z,3.60
2023-03-21T15:38:56.517Z,3.30
2023-03-21T15:41:29.718Z,3.80
2023-03-21T15:44:10.256Z,3.50
2023-03-21T15:46:46.387Z,4.60
2023-03-21T15:49:17.372Z,6.70
2023-03-21T15:51:49.654Z,6.40
2023-03-21T15:54:31.342Z,5.90
2023-03-21T15:57:04.725Z,7.40
2023-03-21T15:59:36.085Z,6.30
2023-03-21T16:02:05.198Z,6.20
2023-03-21T16:04:53.510Z,5.30
2023-03-21T16:07:25.472Z,7.40
2023-03-21T16:10:01.707Z,8.30
2023-03-21T16:12:29.883Z,5.20
2023-03-21T16:14:58.152Z,5.40
2023-03-21T16:17:39.769Z,6.00
2023-03-21T16:20:20.420Z,6.60
2023-03-21T16:22:48.818Z,7.20
2023-03-21T16:25:18.232Z,5.90
2023-03-21T16:27:47.618Z,6.60
2023-03-21T16:30:20.275Z,5.70
2023-03-21T16:32:50.312Z,5.60
2023-03-21T16:35:20.574Z,6.90
2023-03-21T16:37:49.948Z,6.20
2023-03-21T16:40:27.736Z,6.10
2023-03-21T16:42:56.113Z,6.40
2023-03-21T16:45:24.700Z,6.70
2023-03-21T16:47:53.620Z,6.40
2023-03-21T16:50:35.443Z,6.60
2023-03-21T16:53:04.705Z,7.40
2023-03-21T16:55:34.908Z,8.60
2023-03-21T16:58:03.697Z,7.10
2023-03-21T17:00:32.671Z,6.20
2023-03-21T17:03:03.741Z,6.40
2023-03-21T17:05:32.098Z,8.40
2023-03-21T17:08:04.732Z,7.60
2023-03-21T17:10:33.667Z,6.70
2023-03-21T17:13:02.048Z,6.60
2023-03-21T17:15:30.430Z,4.80
2023-03-21T17:17:58.604Z,5.50
2023-03-21T17:20:34.716Z,9.40
2023-03-21T17:23:03.568Z,9.70
2023-03-21T17:25:31.611Z,6.90
2023-03-21T17:28:00.009Z,7.40
2023-03-21T17:30:34.402Z,8.50
2023-03-21T17:33:02.986Z,6.60
2023-03-21T17:35:31.156Z,11.30
2023-03-21T17:37:59.548Z,7.90
2023-03-21T17:40:31.417Z,7.50
2023-03-21T17:43:01.408Z,8.80
2023-03-21T17:45:29.903Z,8.40
2023-03-21T17:47:58.181Z,18.80
2023-03-21T17:50:31.473Z,23.10
2023-03-21T17:52:59.739Z,21.60
2023-03-21T17:55:27.641Z,25.20
2023-03-21T17:57:55.881Z,22.80
2023-03-21T18:00:27.247Z,19.80
2023-03-21T18:02:56.431Z,14.90
2023-03-21T18:05:26.845Z,16.90
2023-03-21T18:08:10.318Z,16.60
2023-03-21T18:10:42.161Z,13.80
2023-03-21T18:13:11.372Z,14.60
2023-03-21T18:15:44.077Z,12.10
2023-03-21T18:18:14.550Z,11.60
2023-03-21T18:20:51.766Z,10.80
2023-03-21T18:23:21.797Z,9.90
2023-03-21T18:25:52.754Z,10.20
2023-03-21T18:28:22.425Z,10.60
2023-03-21T18:31:12.610Z,11.30
2023-03-21T18:33:41.705Z,15.90
2023-03-21T18:36:13.792Z,21.60
2023-03-21T18:38:42.868Z,23.50
2023-03-21T18:41:11.629Z,15.60
2023-03-21T18:46:28.411Z,18.50
2023-03-21T18:48:57.981Z,12.30
2023-03-21T18:51:26.463Z,12.00
2023-03-21T18:53:55.231Z,14.50
2023-03-21T18:57:13.223Z,17.20
2023-03-21T18:59:12.474Z,15.70
2023-03-21T19:01:42.077Z,14.80
2023-03-21T19:04:23.057Z,16.50
2023-03-21T19:06:58.556Z,16.50
2023-03-21T19:09:31.394Z,14.20
2023-03-21T19:12:01.594Z,14.60
2023-03-21T19:14:30.168Z,10.60
2023-03-21T19:17:55.795Z,10.10
2023-03-21T19:19:48.049Z,9.60
2023-03-21T19:22:16.940Z,8.70
2023-03-21T19:24:44.980Z,7.70
2023-03-21T19:27:13.562Z,12.00
2023-03-21T19:29:42.046Z,9.60
2023-03-21T19:32:10.303Z,8.50
2023-03-21T19:34:38.824Z,11.00
2023-03-21T19:37:07.327Z,9.90
2023-03-21T19:39:35.665Z,8.40
2023-03-21T19:42:15.959Z,9.10
2023-03-21T19:44:45.829Z,9.50
2023-03-21T19:47:13.809Z,7.10
2023-03-21T19:50:30.665Z,8.30
2023-03-21T19:52:32.270Z,7.10
2023-03-21T19:55:00.533Z,7.10
2023-03-21T19:57:28.610Z,8.10
2023-03-21T19:59:56.886Z,8.80
2023-03-21T20:02:35.555Z,8.90
2023-03-21T20:05:06.828Z,7.60
2023-03-21T20:07:35.081Z,6.80
2023-03-21T20:10:03.927Z,7.40
2023-03-21T20:12:35.071Z,7.40
2023-03-21T20:15:16.990Z,10.40
2023-03-21T20:17:46.043Z,13.70
2023-03-21T20:20:17.131Z,10.50
2023-03-21T20:23:06.388Z,11.30
2023-03-21T20:25:39.837Z,16.70
2023-03-21T20:28:23.761Z,21.80
2023-03-21T20:31:00.756Z,30.10
2023-03-21T20:33:29.773Z,23.80
2023-03-21T20:36:38.278Z,22.40
2023-03-21T20:38:52.836Z,28.50
2023-03-21T20:41:20.982Z,28.60
2023-03-21T20:46:37.786Z,23.70
2023-03-21T20:49:08.812Z,17.60
2023-03-21T20:54:25.301Z,27.00
2023-03-21T20:56:53.356Z,23.00
2023-03-21T20:59:27.296Z,19.60
2023-03-21T21:01:57.771Z,18.20
2023-03-21T21:04:48.292Z,26.60
2023-03-21T21:07:22.810Z,22.20
2023-03-21T21:09:50.863Z,23.30
2023-03-21T21:12:19.520Z,41.10
2023-03-21T21:14:48.450Z,24.20
2023-03-21T21:20:17.998Z,18.80
2023-03-21T21:23:13.564Z,14.40
2023-03-21T21:25:41.709Z,11.10
2023-03-21T21:28:27.144Z,17.20
2023-03-21T21:31:01.229Z,14.40
2023-03-21T21:33:29.737Z,16.40
2023-03-21T21:36:03.658Z,16.50
2023-03-21T21:38:36.198Z,17.70
2023-03-21T21:41:07.888Z,18.30
2023-03-21T21:43:36.766Z,16.20
2023-03-21T21:46:05.659Z,17.00
2023-03-21T21:48:34.323Z,18.50
2023-03-21T21:51:02.627Z,14.10
2023-03-21T21:53:33.852Z,29.60
2023-03-21T21:56:06.393Z,21.90
2023-03-21T21:58:38.629Z,29.10
2023-03-21T22:03:36.574Z,34.20
2023-03-21T22:06:05.114Z,32.50
2023-03-21T22:08:33.524Z,34.20
2023-03-21T22:11:02.541Z,34.60
2023-03-21T22:13:30.737Z,33.00
2023-03-21T22:15:58.702Z,28.30
2023-03-21T22:18:26.747Z,35.00
2023-03-21T22:20:54.846Z,30.40
2023-03-21T22:23:26.085Z,31.40
2023-03-21T22:25:54.096Z,26.10
2023-03-21T22:28:22.269Z,29.70
2023-03-21T22:30:50.490Z,29.10
2023-03-21T22:33:20.092Z,26.60
2023-03-21T22:35:52.874Z,23.50
2023-03-21T22:38:24.160Z,25.00
2023-03-21T22:40:59.982Z,22.40
2023-03-21T22:43:28.965Z,25.90
2023-03-21T22:45:57.338Z,21.60
2023-03-21T22:48:25.677Z,20.80
2023-03-21T22:50:53.788Z,23.90
2023-03-21T22:53:22.256Z,21.80
2023-03-21T22:55:50.560Z,22.00
2023-03-21T22:58:19.215Z,22.90
2023-03-21T23:00:47.514Z,19.90
2023-03-21T23:03:17.107Z,19.90
2023-03-21T23:05:45.820Z,20.90
2023-03-21T23:08:14.035Z,21.60
2023-03-21T23:10:46.323Z,19.70
2023-03-21T23:15:42.163Z,22.70
2023-03-21T23:18:10.452Z,21.30
2023-03-21T23:20:38.637Z,21.10
2023-03-21T23:23:06.902Z,20.10
2023-03-21T23:25:38.638Z,20.40
2023-03-21T23:28:08.375Z,19.40
2023-03-21T23:30:39.039Z,21.50
2023-03-21T23:33:07.256Z,23.30
2023-03-21T23:35:38.518Z,18.60
2023-03-21T23:38:06.924Z,21.10
2023-03-21T23:40:34.862Z,19.70
2023-03-21T23:43:03.239Z,20.00
2023-03-21T23:45:31.217Z,21.80
2023-03-21T23:47:59.088Z,28.20
2023-03-21T23:50:27.145Z,28.20
2023-03-21T23:52:54.970Z,24.80
2023-03-21T23:55:23.183Z,30.60
2023-03-21T23:57:59.058Z,30.70
